createdAt,value
2022-11-19T00:01:23.389Z,3.67
2022-11-19T00:03:52.900Z,3.00
2022-11-19T00:06:30.134Z,5.75
2022-11-19T00:08:57.964Z,3.85
2022-11-19T00:11:45.072Z,7.35
2022-11-19T00:14:13.552Z,2.90
2022-11-19T00:16:41.718Z,2.55
2022-11-19T00:19:10.949Z,2.70
2022-11-19T00:21:38.585Z,4.53
2022-11-19T00:24:06.192Z,3.60
2022-11-19T00:26:34.110Z,4.45
2022-11-19T00:29:01.652Z,5.30
2022-11-19T00:31:29.223Z,2.35
2022-11-19T00:33:56.900Z,5.00
2022-11-19T00:36:25.102Z,4.78
2022-11-19T00:38:52.484Z,4.57
2022-11-19T00:41:20.016Z,4.95
2022-11-19T00:43:47.817Z,4.55
2022-11-19T00:46:26.262Z,3.15
2022-11-19T00:48:55.301Z,5.03
2022-11-19T00:51:23.493Z,3.78
2022-11-19T00:53:51.311Z,4.72
2022-11-19T00:56:20.362Z,3.30
2022-11-19T00:58:48.229Z,4.35
2022-11-19T01:01:16.824Z,3.90
2022-11-19T01:03:46.367Z,4.15
2022-11-19T01:06:18.819Z,6.22
2022-11-19T01:08:47.623Z,2.95
2022-11-19T01:11:21.308Z,4.55
2022-11-19T01:13:49.176Z,3.65
2022-11-19T01:16:19.520Z,2.70
2022-11-19T01:18:47.983Z,3.17
2022-11-19T01:21:15.860Z,5.72
2022-11-19T01:23:44.463Z,3.80
2022-11-19T01:26:12.448Z,4.28
2022-11-19T01:28:40.109Z,3.10
2022-11-19T01:31:12.410Z,3.25
2022-11-19T01:33:40.252Z,3.35
2022-11-19T01:36:09.691Z,5.07
2022-11-19T01:38:37.251Z,3.50
2022-11-19T01:41:05.400Z,4.45
2022-11-19T01:43:42.360Z,5.65
2022-11-19T01:46:10.809Z,3.83
2022-11-19T01:48:40.600Z,3.33
2022-11-19T01:51:14.680Z,4.32
2022-11-19T01:53:44.863Z,4.72
2022-11-19T01:56:12.681Z,5.95
2022-11-19T01:58:43.180Z,4.65
2022-11-19T02:01:11.598Z,3.90
2022-11-19T02:03:41.025Z,4.57
2022-11-19T02:06:08.771Z,2.83
2022-11-19T02:08:38.161Z,3.65
2022-11-19T02:11:29.043Z,2.85
2022-11-19T02:13:56.474Z,2.05
2022-11-19T02:16:28.331Z,3.10
2022-11-19T02:18:57.528Z,5.63
2022-11-19T02:21:31.182Z,6.65
2022-11-19T02:24:07.913Z,3.28
2022-11-19T02:26:35.411Z,3.22
2022-11-19T02:29:21.941Z,5.35
2022-11-19T02:31:54.440Z,3.10
2022-11-19T02:34:26.161Z,2.42
2022-11-19T02:37:06.480Z,2.35
2022-11-19T02:39:40.808Z,4.13
2022-11-19T02:44:57.632Z,4.90
2022-11-19T02:47:28.369Z,5.28
2022-11-19T02:49:57.413Z,3.03
2022-11-19T02:52:24.865Z,4.20
2022-11-19T02:54:52.520Z,3.08
2022-11-19T02:57:20.365Z,4.93
2022-11-19T03:00:06.750Z,4.80
2022-11-19T03:02:57.134Z,2.75
2022-11-19T03:05:27.152Z,4.55
2022-11-19T03:07:55.183Z,5.25
2022-11-19T03:10:25.218Z,5.05
2022-11-19T03:12:55.684Z,3.58
2022-11-19T03:15:44.853Z,5.95
2022-11-19T03:18:22.539Z,6.25
2022-11-19T03:20:56.510Z,5.93
2022-11-19T03:23:27.931Z,4.85
2022-11-19T03:25:59.500Z,6.65
2022-11-19T03:28:30.901Z,4.13
2022-11-19T03:30:59.910Z,4.05
2022-11-19T03:33:35.181Z,5.00
2022-11-19T03:36:06.663Z,4.60
2022-11-19T03:38:37.400Z,8.95
2022-11-19T03:41:06.530Z,5.18
2022-11-19T03:43:36.266Z,6.38
2022-11-19T03:46:05.313Z,8.85
2022-11-19T03:48:33.220Z,6.93
2022-11-19T03:51:13.753Z,4.22
2022-11-19T03:53:41.233Z,6.13
2022-11-19T03:56:10.963Z,6.10
2022-11-19T03:58:40.059Z,5.25
2022-11-19T04:01:07.618Z,7.45
2022-11-19T04:03:35.050Z,8.88
2022-11-19T04:06:02.781Z,6.55
2022-11-19T04:08:30.293Z,7.90
2022-11-19T04:13:26.354Z,3.63
2022-11-19T04:15:53.914Z,6.22
2022-11-19T04:18:21.490Z,7.70
2022-11-19T04:20:49.114Z,7.00
2022-11-19T04:23:17.244Z,6.10
2022-11-19T04:25:48.176Z,6.68
2022-11-19T04:28:15.710Z,6.63
2022-11-19T04:30:44.255Z,7.68
2022-11-19T04:33:11.943Z,8.98
2022-11-19T04:35:39.578Z,8.60
2022-11-19T04:38:07.390Z,5.60
2022-11-19T04:40:34.990Z,5.45
2022-11-19T04:43:02.613Z,10.45
2022-11-19T04:45:30.273Z,7.05
2022-11-19T04:47:57.785Z,8.55
2022-11-19T04:50:25.318Z,7.63
2022-11-19T04:52:53.061Z,5.05
2022-11-19T04:55:20.550Z,5.07
2022-11-19T04:57:49.889Z,5.18
2022-11-19T05:00:18.603Z,3.25
2022-11-19T05:02:46.109Z,3.33
2022-11-19T05:05:13.649Z,4.47
2022-11-19T05:07:41.679Z,5.70
2022-11-19T05:10:09.469Z,4.25
2022-11-19T05:12:37.001Z,4.05
2022-11-19T05:15:04.700Z,4.95
2022-11-19T05:17:32.989Z,5.10
2022-11-19T05:20:00.620Z,6.05
2022-11-19T05:22:28.120Z,3.85
2022-11-19T05:24:55.670Z,3.30
2022-11-19T05:27:23.403Z,1.92
2022-11-19T05:29:50.878Z,2.03
2022-11-19T05:32:18.511Z,3.85
2022-11-19T05:34:46.099Z,3.22
2022-11-19T05:37:13.632Z,2.05
2022-11-19T05:39:41.118Z,2.13
2022-11-19T05:42:08.832Z,1.73
2022-11-19T05:44:36.620Z,1.27
2022-11-19T05:47:04.133Z,1.33
2022-11-19T05:49:31.499Z,1.60
2022-11-19T05:51:59.071Z,1.48
2022-11-19T05:54:26.502Z,1.92
2022-11-19T05:56:54.252Z,1.23
2022-11-19T05:59:22.149Z,1.95
2022-11-19T06:01:50.041Z,1.35
2022-11-19T06:04:17.758Z,1.17
2022-11-19T06:06:45.310Z,1.65
2022-11-19T06:09:12.929Z,1.10
2022-11-19T06:11:50.636Z,1.10
2022-11-19T06:14:19.321Z,1.40
2022-11-19T06:16:47.025Z,2.10
2022-11-19T06:19:14.742Z,1.40
2022-11-19T06:21:42.147Z,1.70
2022-11-19T06:24:09.672Z,2.33
2022-11-19T06:26:38.322Z,1.63
2022-11-19T06:29:06.063Z,1.73
2022-11-19T06:31:33.790Z,2.58
2022-11-19T06:34:01.679Z,1.30
2022-11-19T06:36:34.913Z,1.95
2022-11-19T06:39:06.660Z,3.00
2022-11-19T06:41:34.346Z,19.13
2022-11-19T06:44:01.940Z,8.82
2022-11-19T06:46:29.494Z,7.82
2022-11-19T06:48:57.264Z,14.65
2022-11-19T06:51:25.051Z,21.02
2022-11-19T06:53:52.510Z,43.97
2022-11-19T06:56:20.038Z,24.38
2022-11-19T06:58:47.479Z,166.88
2022-11-19T07:01:15.573Z,115.03
2022-11-19T07:03:43.520Z,12.40
2022-11-19T07:06:14.414Z,3.05
2022-11-19T07:08:42.188Z,5.95
2022-11-19T07:11:28.145Z,12.48
2022-11-19T07:13:59.994Z,3.00
2022-11-19T07:16:29.663Z,2.70
2022-11-19T07:18:58.082Z,4.28
2022-11-19T07:21:25.770Z,6.32
2022-11-19T07:23:53.412Z,2.97
2022-11-19T07:26:21.238Z,6.93
2022-11-19T07:28:48.974Z,7.22
2022-11-19T07:31:16.718Z,8.60
2022-11-19T07:33:44.280Z,3.70
2022-11-19T07:36:17.015Z,3.65
2022-11-19T07:38:45.913Z,3.35
2022-11-19T07:41:32.163Z,3.55
2022-11-19T07:43:59.751Z,4.70
2022-11-19T07:46:27.430Z,3.17
2022-11-19T07:48:55.580Z,3.95
2022-11-19T07:51:23.916Z,4.32
2022-11-19T07:53:52.681Z,4.28
2022-11-19T07:56:21.235Z,3.42
2022-11-19T07:58:50.399Z,3.45
2022-11-19T08:01:20.032Z,3.20
2022-11-19T08:03:52.058Z,4.20
2022-11-19T08:06:23.877Z,3.58
2022-11-19T08:08:51.482Z,4.15
2022-11-19T08:11:19.699Z,4.47
2022-11-19T08:13:47.377Z,4.15
2022-11-19T08:16:34.795Z,4.22
2022-11-19T08:19:03.270Z,4.63
2022-11-19T08:21:31.308Z,3.47
2022-11-19T08:23:58.851Z,3.47
2022-11-19T08:26:26.303Z,3.60
2022-11-19T08:28:54.309Z,2.90
2022-11-19T08:31:21.972Z,3.15
2022-11-19T08:33:49.505Z,3.65
2022-11-19T08:36:17.019Z,3.40
2022-11-19T08:38:44.691Z,4.95
2022-11-19T08:41:31.212Z,4.03
2022-11-19T08:44:01.571Z,4.70
2022-11-19T08:46:29.015Z,4.53
2022-11-19T08:48:56.799Z,3.95
2022-11-19T08:51:24.249Z,5.30
2022-11-19T08:53:54.903Z,2.95
2022-11-19T08:56:24.202Z,3.33
2022-11-19T08:58:54.709Z,3.30
2022-11-19T09:01:24.969Z,4.68
2022-11-19T09:03:52.408Z,5.18
2022-11-19T09:06:20.212Z,3.80
2022-11-19T09:08:50.825Z,4.68
2022-11-19T09:11:19.931Z,36.58
2022-11-19T09:13:47.510Z,12.35
2022-11-19T09:16:14.923Z,10.57
2022-11-19T09:18:42.681Z,5.47
2022-11-19T09:21:10.949Z,5.78
2022-11-19T09:23:38.994Z,10.02
2022-11-19T09:26:17.809Z,6.88
2022-11-19T09:28:45.151Z,6.88
2022-11-19T09:31:13.692Z,6.10
2022-11-19T09:33:45.739Z,5.35
2022-11-19T09:36:13.553Z,4.22
2022-11-19T09:38:41.169Z,4.68
2022-11-19T09:41:14.221Z,5.45
2022-11-19T09:44:00.229Z,4.10
2022-11-19T09:46:35.452Z,5.13
2022-11-19T09:49:05.288Z,6.60
2022-11-19T09:51:34.780Z,4.57
2022-11-19T09:54:08.887Z,5.15
2022-11-19T09:56:41.165Z,4.30
2022-11-19T09:59:14.330Z,4.75
2022-11-19T10:01:41.820Z,4.57
2022-11-19T10:04:11.373Z,5.13
2022-11-19T10:06:50.964Z,4.57
2022-11-19T10:09:18.279Z,5.45
2022-11-19T10:11:51.681Z,4.68
2022-11-19T10:14:25.647Z,4.72
2022-11-19T10:17:22.918Z,4.50
2022-11-19T10:20:05.664Z,6.97
2022-11-19T10:22:39.657Z,5.30
2022-11-19T10:25:17.664Z,6.05
2022-11-19T10:27:48.056Z,6.03
2022-11-19T10:30:17.531Z,6.18
2022-11-19T10:33:05.702Z,7.30
2022-11-19T10:35:41.041Z,6.22
2022-11-19T10:38:17.051Z,5.18
2022-11-19T10:40:46.809Z,6.80
2022-11-19T10:43:22.021Z,7.25
2022-11-19T10:45:50.950Z,6.88
2022-11-19T10:48:25.672Z,8.65
2022-11-19T10:50:53.326Z,9.63
2022-11-19T10:53:26.710Z,13.70
2022-11-19T10:55:56.534Z,20.03
2022-11-19T10:58:29.991Z,8.75
2022-11-19T11:00:58.835Z,8.07
2022-11-19T11:03:39.677Z,13.23
2022-11-19T11:06:10.183Z,14.65
2022-11-19T11:08:54.159Z,12.15
2022-11-19T11:12:00.068Z,13.77
2022-11-19T11:14:46.339Z,10.48
2022-11-19T11:17:20.478Z,14.10
2022-11-19T11:20:08.150Z,11.50
2022-11-19T11:22:36.677Z,12.43
2022-11-19T11:25:07.301Z,13.98
2022-11-19T11:27:35.722Z,12.50
2022-11-19T11:30:17.514Z,10.43
2022-11-19T11:32:45.011Z,13.90
2022-11-19T11:35:45.040Z,12.43
2022-11-19T11:38:12.939Z,15.02
2022-11-19T11:40:40.378Z,13.85
2022-11-19T11:43:07.782Z,13.98
2022-11-19T11:45:37.314Z,13.68
2022-11-19T11:48:06.869Z,14.00
2022-11-19T11:50:35.555Z,15.65
2022-11-19T11:53:07.978Z,19.23
2022-11-19T11:55:36.239Z,17.73
2022-11-19T11:58:05.221Z,18.30
2022-11-19T12:00:47.961Z,19.27
2022-11-19T12:03:18.988Z,19.17
2022-11-19T12:06:01.881Z,24.63
2022-11-19T12:08:48.031Z,21.95
2022-11-19T12:11:21.694Z,25.17
2022-11-19T12:13:57.619Z,22.15
2022-11-19T12:16:43.761Z,24.52
2022-11-19T12:19:18.044Z,26.48
2022-11-19T12:22:00.944Z,25.15
2022-11-19T12:24:47.072Z,21.75
2022-11-19T12:27:20.798Z,24.40
2022-11-19T12:30:07.219Z,24.42
2022-11-19T12:33:01.220Z,23.13
2022-11-19T12:35:38.013Z,20.90
2022-11-19T12:38:05.742Z,22.80
2022-11-19T12:40:53.070Z,24.08
2022-11-19T12:43:30.117Z,22.80
2022-11-19T12:46:09.948Z,25.77
2022-11-19T12:48:43.906Z,31.75
2022-11-19T12:51:26.620Z,28.27
2022-11-19T12:53:57.123Z,32.63
2022-11-19T12:56:33.721Z,31.02
2022-11-19T12:59:01.122Z,30.25
2022-11-19T13:01:31.839Z,35.50
2022-11-19T13:04:14.621Z,34.00
2022-11-19T13:06:45.552Z,35.78
2022-11-19T13:09:19.317Z,32.10
2022-11-19T13:11:51.012Z,28.52
2022-11-19T13:14:24.279Z,29.35
2022-11-19T13:16:52.971Z,35.60
2022-11-19T13:19:30.951Z,33.58
2022-11-19T13:22:12.317Z,31.85
2022-11-19T13:24:45.018Z,29.20
2022-11-19T13:27:20.157Z,36.38
2022-11-19T13:30:00.044Z,35.22
2022-11-19T13:32:30.919Z,40.72
2022-11-19T13:35:04.990Z,36.42
2022-11-19T13:37:33.136Z,41.90
2022-11-19T13:40:04.188Z,39.55
2022-11-19T13:43:17.095Z,37.92
2022-11-19T13:45:38.137Z,38.92
2022-11-19T13:48:11.940Z,43.78
2022-11-19T13:53:08.640Z,43.97
2022-11-19T13:55:37.687Z,39.72
2022-11-19T13:58:19.811Z,41.88
2022-11-19T14:01:08.279Z,42.72
2022-11-19T14:03:39.486Z,39.55
2022-11-19T14:06:06.835Z,44.53
2022-11-19T14:08:42.110Z,46.60
2022-11-19T14:11:15.871Z,47.25
2022-11-19T14:13:46.385Z,46.75
2022-11-19T14:16:52.266Z,40.35
2022-11-19T14:19:38.702Z,42.80
2022-11-19T14:22:47.770Z,45.00
2022-11-19T14:25:54.155Z,40.42
2022-11-19T14:28:44.842Z,46.40
2022-11-19T14:31:12.805Z,37.83
2022-11-19T14:33:49.475Z,47.58
2022-11-19T14:36:23.052Z,46.33
2022-11-19T14:38:54.632Z,46.00
2022-11-19T14:41:28.199Z,44.10
2022-11-19T14:44:10.717Z,45.08
2022-11-19T14:46:39.580Z,43.67
2022-11-19T14:49:15.016Z,42.65
2022-11-19T14:51:42.581Z,48.20
2022-11-19T14:54:16.051Z,46.63
2022-11-19T14:56:46.208Z,80.32
2022-11-19T14:59:16.801Z,59.33
2022-11-19T15:01:59.625Z,53.67
2022-11-19T15:04:32.875Z,42.17
2022-11-19T15:07:00.913Z,39.70
2022-11-19T15:09:46.996Z,41.60
2022-11-19T15:12:14.340Z,45.80
2022-11-19T15:15:02.086Z,39.03
2022-11-19T15:17:29.715Z,35.40
2022-11-19T15:20:08.262Z,35.40
2022-11-19T15:22:49.595Z,42.45
2022-11-19T15:25:20.027Z,40.05
2022-11-19T15:27:55.692Z,36.22
2022-11-19T15:30:43.367Z,42.33
2022-11-19T15:33:31.713Z,40.17
2022-11-19T15:36:17.825Z,40.90
2022-11-19T15:39:00.596Z,43.72
2022-11-19T15:41:31.131Z,43.88
2022-11-19T15:44:00.275Z,48.22
2022-11-19T15:46:30.424Z,43.65
2022-11-19T15:49:13.805Z,46.78
2022-11-19T15:51:51.885Z,49.25
2022-11-19T15:54:19.255Z,52.65
2022-11-19T15:56:50.982Z,58.50
2022-11-19T15:59:19.271Z,52.08
2022-11-19T16:01:56.508Z,52.75
2022-11-19T16:04:23.973Z,66.68
2022-11-19T16:06:51.953Z,54.08
2022-11-19T16:09:23.692Z,54.00
2022-11-19T16:12:09.763Z,45.00
2022-11-19T16:14:55.731Z,62.75
2022-11-19T16:17:41.706Z,53.58
2022-11-19T16:20:11.123Z,68.43
2022-11-19T16:22:40.033Z,74.07
2022-11-19T16:25:15.161Z,69.88
2022-11-19T16:27:43.222Z,85.68
2022-11-19T16:30:24.353Z,149.93
2022-11-19T16:32:51.985Z,65.43
2022-11-19T16:35:38.025Z,75.20
2022-11-19T16:38:05.427Z,59.80
2022-11-19T16:40:53.054Z,61.75
2022-11-19T16:43:20.995Z,51.00
2022-11-19T16:45:48.662Z,60.47
2022-11-19T16:48:35.057Z,63.90
2022-11-19T16:51:22.324Z,56.03
2022-11-19T16:53:49.752Z,56.63
2022-11-19T16:56:17.227Z,58.35
2022-11-19T16:58:46.565Z,70.07
2022-11-19T17:01:18.024Z,68.22
2022-11-19T17:03:46.004Z,59.78
2022-11-19T17:06:25.779Z,61.90
2022-11-19T17:09:02.191Z,61.63
2022-11-19T17:11:57.273Z,58.28
2022-11-19T17:14:41.555Z,52.40
2022-11-19T17:17:27.830Z,49.45
2022-11-19T17:19:56.777Z,46.20
2022-11-19T17:22:28.006Z,48.95
2022-11-19T17:24:55.458Z,50.53
2022-11-19T17:27:22.748Z,52.50
2022-11-19T17:29:50.247Z,47.40
2022-11-19T17:32:17.630Z,49.55
2022-11-19T17:34:46.441Z,49.00
2022-11-19T17:37:13.814Z,50.75
2022-11-19T17:39:41.093Z,50.13
2022-11-19T17:42:29.171Z,48.40
2022-11-19T17:44:56.782Z,52.20
2022-11-19T17:47:24.564Z,56.38
2022-11-19T17:49:52.972Z,51.42
2022-11-19T17:52:27.297Z,47.70
2022-11-19T17:54:56.356Z,49.88
2022-11-19T17:57:23.691Z,39.05
2022-11-19T17:59:51.066Z,47.42
2022-11-19T18:02:19.524Z,42.30
2022-11-19T18:04:47.482Z,38.13
2022-11-19T18:07:15.382Z,30.70
2022-11-19T18:09:42.848Z,33.78
2022-11-19T18:12:15.387Z,28.75
2022-11-19T18:14:42.905Z,29.00
2022-11-19T18:17:14.464Z,31.60
2022-11-19T18:19:42.015Z,27.52
2022-11-19T18:22:17.282Z,84.85
2022-11-19T18:24:45.155Z,32.10
2022-11-19T18:27:12.525Z,23.63
2022-11-19T18:29:40.022Z,24.25
2022-11-19T18:37:31.014Z,24.30
2022-11-19T18:39:58.512Z,28.40
2022-11-19T18:42:26.370Z,24.90
2022-11-19T18:44:53.794Z,22.65
2022-11-19T18:47:23.735Z,24.92
2022-11-19T18:49:51.526Z,27.65
2022-11-19T18:52:19.870Z,28.02
2022-11-19T18:54:47.483Z,20.98
2022-11-19T18:57:15.233Z,26.58
2022-11-19T18:59:42.801Z,28.70
2022-11-19T19:02:11.233Z,28.45
2022-11-19T19:04:38.824Z,25.73
2022-11-19T19:07:06.391Z,27.83
2022-11-19T19:09:33.870Z,25.33
2022-11-19T19:12:20.638Z,29.25
2022-11-19T19:14:49.112Z,27.80
2022-11-19T19:17:17.053Z,24.27
2022-11-19T19:19:44.664Z,24.38
2022-11-19T19:22:12.354Z,21.77
2022-11-19T19:24:39.712Z,22.98
2022-11-19T19:27:07.622Z,23.33
2022-11-19T19:29:35.483Z,26.90
2022-11-19T19:32:04.631Z,25.70
2022-11-19T19:34:32.865Z,26.63
2022-11-19T19:37:00.365Z,32.65
2022-11-19T19:39:27.902Z,34.03
2022-11-19T19:41:55.513Z,32.35
2022-11-19T19:44:23.771Z,36.33
2022-11-19T19:46:52.920Z,25.52
2022-11-19T19:49:21.027Z,33.50
2022-11-19T19:51:49.709Z,28.13
2022-11-19T19:54:17.462Z,33.58
2022-11-19T19:56:45.012Z,36.40
2022-11-19T19:59:16.410Z,33.25
2022-11-19T20:01:47.731Z,35.22
2022-11-19T20:04:16.445Z,38.42
2022-11-19T20:06:48.136Z,33.25
2022-11-19T20:09:16.447Z,33.60
2022-11-19T20:11:44.110Z,44.75
2022-11-19T20:14:11.748Z,37.65
2022-11-19T20:16:40.605Z,48.05
2022-11-19T20:19:09.285Z,35.40
2022-11-19T20:21:37.557Z,28.05
2022-11-19T20:24:11.890Z,28.15
2022-11-19T20:26:40.843Z,28.17
2022-11-19T20:29:10.064Z,26.85
2022-11-19T20:31:37.471Z,19.98
2022-11-19T20:34:05.854Z,21.60
2022-11-19T20:36:36.582Z,21.67
2022-11-19T20:39:05.245Z,20.35
2022-11-19T20:41:51.921Z,19.85
2022-11-19T20:44:26.213Z,21.55
2022-11-19T20:46:57.181Z,23.83
2022-11-19T20:49:31.285Z,23.30
2022-11-19T20:54:27.142Z,16.17
2022-11-19T20:56:56.240Z,16.73
2022-11-19T20:59:26.044Z,24.05
2022-11-19T21:01:54.569Z,20.98
2022-11-19T21:04:22.633Z,25.60
2022-11-19T21:06:52.860Z,17.63
2022-11-19T21:09:21.048Z,16.23
2022-11-19T21:11:49.192Z,18.75
2022-11-19T21:14:17.333Z,21.58
2022-11-19T21:16:45.421Z,17.60
2022-11-19T21:19:13.985Z,16.75
2022-11-19T21:21:41.432Z,15.57
2022-11-19T21:24:09.171Z,15.52
2022-11-19T21:26:37.079Z,16.40
2022-11-19T21:29:04.964Z,14.52
2022-11-19T21:31:46.321Z,14.98
2022-11-19T21:34:15.781Z,19.90
2022-11-19T21:36:43.775Z,14.93
2022-11-19T21:39:12.235Z,21.48
2022-11-19T21:41:39.821Z,21.33
2022-11-19T21:44:07.713Z,18.52
2022-11-19T21:46:35.782Z,14.52
2022-11-19T21:49:03.598Z,15.65
2022-11-19T21:51:31.553Z,14.55
2022-11-19T21:53:59.639Z,15.90
2022-11-19T21:56:28.022Z,16.15
2022-11-19T21:58:55.674Z,15.35
2022-11-19T22:01:23.314Z,23.08
2022-11-19T22:03:50.944Z,21.35
2022-11-19T22:06:18.335Z,17.55
2022-11-19T22:08:45.781Z,27.70
2022-11-19T22:11:32.138Z,24.55
2022-11-19T22:14:05.015Z,28.75
2022-11-19T22:16:33.252Z,24.48
2022-11-19T22:19:00.845Z,25.88
2022-11-19T22:21:29.334Z,21.80
2022-11-19T22:23:59.480Z,24.58
2022-11-19T22:26:27.241Z,27.58
2022-11-19T22:28:56.702Z,40.92
2022-11-19T22:31:24.245Z,36.78
2022-11-19T22:33:52.317Z,34.63
2022-11-19T22:36:20.869Z,35.88
2022-11-19T22:38:48.724Z,26.35
2022-11-19T22:41:17.991Z,30.13
2022-11-19T22:43:45.580Z,27.30
2022-11-19T22:46:13.753Z,22.70
2022-11-19T22:48:41.494Z,26.90
2022-11-19T22:51:12.091Z,24.00
2022-11-19T22:53:39.706Z,26.33
2022-11-19T22:56:08.462Z,37.08
2022-11-19T22:58:36.861Z,33.17
2022-11-19T23:01:05.361Z,26.08
2022-11-19T23:03:33.134Z,34.53
2022-11-19T23:06:01.007Z,44.30
2022-11-19T23:08:28.784Z,34.97
2022-11-19T23:11:03.590Z,44.70
2022-11-19T23:13:32.163Z,67.22
2022-11-19T23:16:00.342Z,42.55
2022-11-19T23:18:28.335Z,43.58
2022-11-19T23:21:00.002Z,48.85
2022-11-19T23:23:28.113Z,66.00
2022-11-19T23:25:59.384Z,25.95
2022-11-19T23:28:27.680Z,25.67
2022-11-19T23:30:55.272Z,28.10
2022-11-19T23:33:23.299Z,28.83
2022-11-19T23:35:50.853Z,34.88
2022-11-19T23:38:18.454Z,41.95
2022-11-19T23:40:46.184Z,42.85
2022-11-19T23:43:13.802Z,24.55
2022-11-19T23:45:41.374Z,31.70
2022-11-19T23:48:09.071Z,23.27
2022-11-19T23:50:36.503Z,21.15
2022-11-19T23:53:04.039Z,20.77
2022-11-19T23:55:31.581Z,21.23
2022-11-19T23:57:59.393Z,19.60
